sensor_id;sensor_type;location;lat;lon;timestamp;temperature;humidity
47350;DHT22;33088;51.982;5.872;2022-08-19T00:00:12;18.50;99.90
47350;DHT22;33088;51.982;5.872;2022-08-19T00:02:40;18.50;99.90
47350;DHT22;33088;51.982;5.872;2022-08-19T00:05:06;18.60;99.90
47350;DHT22;33088;51.982;5.872;2022-08-19T00:07:32;18.60;99.90
47350;DHT22;33088;51.982;5.872;2022-08-19T00:09:57;18.70;99.90
47350;DHT22;33088;51.982;5.872;2022-08-19T00:12:23;18.70;99.90
47350;DHT22;33088;51.982;5.872;2022-08-19T00:14:49;18.70;99.90
47350;DHT22;33088;51.982;5.872;2022-08-19T00:17:17;18.60;99.90
47350;DHT22;33088;51.982;5.872;2022-08-19T00:19:43;18.70;99.90
47350;DHT22;33088;51.982;5.872;2022-08-19T00:22:08;18.60;99.90
47350;DHT22;33088;51.982;5.872;2022-08-19T00:24:34;18.60;99.90
47350;DHT22;33088;51.982;5.872;2022-08-19T00:27:00;18.60;99.90
47350;DHT22;33088;51.982;5.872;2022-08-19T00:29:28;18.50;99.90
47350;DHT22;33088;51.982;5.872;2022-08-19T00:31:54;18.50;99.90
47350;DHT22;33088;51.982;5.872;2022-08-19T00:34:22;18.60;99.90
47350;DHT22;33088;51.982;5.872;2022-08-19T00:36:48;18.40;99.90
47350;DHT22;33088;51.982;5.872;2022-08-19T00:39:15;18.30;99.90
47350;DHT22;33088;51.982;5.872;2022-08-19T00:41:42;18.20;99.90
47350;DHT22;33088;51.982;5.872;2022-08-19T00:46:38;18.10;99.90
47350;DHT22;33088;51.982;5.872;2022-08-19T00:49:14;18.00;99.90
47350;DHT22;33088;51.982;5.872;2022-08-19T00:51:41;18.00;99.90
47350;DHT22;33088;51.982;5.872;2022-08-19T00:54:08;18.00;99.90
47350;DHT22;33088;51.982;5.872;2022-08-19T00:56:35;17.90;99.90
47350;DHT22;33088;51.982;5.872;2022-08-19T00:59:02;17.90;99.90
47350;DHT22;33088;51.982;5.872;2022-08-19T01:01:35;17.90;99.90
47350;DHT22;33088;51.982;5.872;2022-08-19T01:04:01;17.90;99.90
47350;DHT22;33088;51.982;5.872;2022-08-19T01:06:27;17.90;99.90
47350;DHT22;33088;51.982;5.872;2022-08-19T01:08:54;17.90;99.90
47350;DHT22;33088;51.982;5.872;2022-08-19T01:11:20;17.80;99.90
47350;DHT22;33088;51.982;5.872;2022-08-19T01:13:46;17.80;99.90
47350;DHT22;33088;51.982;5.872;2022-08-19T01:16:13;17.80;99.90
47350;DHT22;33088;51.982;5.872;2022-08-19T01:18:41;17.80;99.90
47350;DHT22;33088;51.982;5.872;2022-08-19T01:21:35;17.90;99.90
47350;DHT22;33088;51.982;5.872;2022-08-19T01:24:03;17.80;99.90
47350;DHT22;33088;51.982;5.872;2022-08-19T01:26:29;17.80;99.90
47350;DHT22;33088;51.982;5.872;2022-08-19T01:28:57;17.90;99.90
47350;DHT22;33088;51.982;5.872;2022-08-19T01:31:25;17.90;99.90
47350;DHT22;33088;51.982;5.872;2022-08-19T01:33:53;18.00;99.90
47350;DHT22;33088;51.982;5.872;2022-08-19T01:38:56;18.10;99.90
47350;DHT22;33088;51.982;5.872;2022-08-19T01:41:23;18.00;99.90
47350;DHT22;33088;51.982;5.872;2022-08-19T01:43:51;17.90;99.90
47350;DHT22;33088;51.982;5.872;2022-08-19T01:46:17;18.00;99.90
47350;DHT22;33088;51.982;5.872;2022-08-19T01:48:43;18.10;99.90
47350;DHT22;33088;51.982;5.872;2022-08-19T01:51:10;18.10;99.90
47350;DHT22;33088;51.982;5.872;2022-08-19T01:53:37;18.10;99.90
47350;DHT22;33088;51.982;5.872;2022-08-19T01:56:04;18.10;99.90
47350;DHT22;33088;51.982;5.872;2022-08-19T01:58:33;18.00;99.90
47350;DHT22;33088;51.982;5.872;2022-08-19T02:01:01;18.00;99.90
47350;DHT22;33088;51.982;5.872;2022-08-19T02:03:27;18.10;99.90
47350;DHT22;33088;51.982;5.872;2022-08-19T02:05:58;18.10;99.90
47350;DHT22;33088;51.982;5.872;2022-08-19T02:08:26;18.20;99.90
47350;DHT22;33088;51.982;5.872;2022-08-19T02:10:52;18.10;99.90
47350;DHT22;33088;51.982;5.872;2022-08-19T02:13:18;18.20;99.90
47350;DHT22;33088;51.982;5.872;2022-08-19T02:15:44;18.20;99.90
47350;DHT22;33088;51.982;5.872;2022-08-19T02:18:10;18.40;99.90
47350;DHT22;33088;51.982;5.872;2022-08-19T02:20:37;18.40;99.90
47350;DHT22;33088;51.982;5.872;2022-08-19T02:23:04;18.40;99.90
47350;DHT22;33088;51.982;5.872;2022-08-19T02:25:30;18.40;99.90
47350;DHT22;33088;51.982;5.872;2022-08-19T02:27:55;18.40;99.90
47350;DHT22;33088;51.982;5.872;2022-08-19T02:30:21;18.40;99.90
47350;DHT22;33088;51.982;5.872;2022-08-19T02:32:47;18.30;99.90
47350;DHT22;33088;51.982;5.872;2022-08-19T02:35:13;18.10;99.90
47350;DHT22;33088;51.982;5.872;2022-08-19T02:37:40;18.00;99.90
47350;DHT22;33088;51.982;5.872;2022-08-19T02:40:25;18.00;99.90
47350;DHT22;33088;51.982;5.872;2022-08-19T02:42:51;18.00;99.90
47350;DHT22;33088;51.982;5.872;2022-08-19T02:45:17;18.00;99.90
47350;DHT22;33088;51.982;5.872;2022-08-19T02:47:42;17.90;99.90
47350;DHT22;33088;51.982;5.872;2022-08-19T02:50:09;17.80;99.90
47350;DHT22;33088;51.982;5.872;2022-08-19T02:52:35;17.90;99.90
47350;DHT22;33088;51.982;5.872;2022-08-19T02:55:01;17.90;99.90
47350;DHT22;33088;51.982;5.872;2022-08-19T02:57:27;17.90;99.90
47350;DHT22;33088;51.982;5.872;2022-08-19T02:59:53;17.80;99.90
47350;DHT22;33088;51.982;5.872;2022-08-19T03:02:19;17.60;99.90
47350;DHT22;33088;51.982;5.872;2022-08-19T03:04:45;17.60;99.90
47350;DHT22;33088;51.982;5.872;2022-08-19T03:07:15;17.50;99.90
47350;DHT22;33088;51.982;5.872;2022-08-19T03:09:41;17.40;99.90
47350;DHT22;33088;51.982;5.872;2022-08-19T03:12:09;17.40;99.90
47350;DHT22;33088;51.982;5.872;2022-08-19T03:14:36;17.40;99.90
47350;DHT22;33088;51.982;5.872;2022-08-19T03:17:03;17.40;99.90
47350;DHT22;33088;51.982;5.872;2022-08-19T03:19:30;17.40;99.90
47350;DHT22;33088;51.982;5.872;2022-08-19T03:21:57;17.40;99.90
47350;DHT22;33088;51.982;5.872;2022-08-19T03:24:24;17.30;99.90
47350;DHT22;33088;51.982;5.872;2022-08-19T03:26:53;17.40;99.90
47350;DHT22;33088;51.982;5.872;2022-08-19T03:29:22;17.20;99.90
47350;DHT22;33088;51.982;5.872;2022-08-19T03:31:48;17.20;99.90
47350;DHT22;33088;51.982;5.872;2022-08-19T03:34:19;17.20;99.90
47350;DHT22;33088;51.982;5.872;2022-08-19T03:36:46;17.20;99.90
47350;DHT22;33088;51.982;5.872;2022-08-19T03:39:12;17.00;99.90
47350;DHT22;33088;51.982;5.872;2022-08-19T03:41:41;17.10;99.90
47350;DHT22;33088;51.982;5.872;2022-08-19T03:44:07;17.10;99.90
47350;DHT22;33088;51.982;5.872;2022-08-19T03:46:34;17.10;99.90
47350;DHT22;33088;51.982;5.872;2022-08-19T03:49:03;17.10;99.90
47350;DHT22;33088;51.982;5.872;2022-08-19T03:51:36;17.20;99.90
47350;DHT22;33088;51.982;5.872;2022-08-19T03:54:05;17.10;99.90
47350;DHT22;33088;51.982;5.872;2022-08-19T03:56:31;17.10;99.90
47350;DHT22;33088;51.982;5.872;2022-08-19T03:58:59;17.20;99.90
47350;DHT22;33088;51.982;5.872;2022-08-19T04:01:27;17.20;99.90
47350;DHT22;33088;51.982;5.872;2022-08-19T04:03:54;17.20;99.90
47350;DHT22;33088;51.982;5.872;2022-08-19T04:06:29;17.30;99.90
47350;DHT22;33088;51.982;5.872;2022-08-19T04:08:56;17.30;99.90
47350;DHT22;33088;51.982;5.872;2022-08-19T04:11:29;17.30;99.90
47350;DHT22;33088;51.982;5.872;2022-08-19T04:13:55;17.30;99.90
47350;DHT22;33088;51.982;5.872;2022-08-19T04:16:22;17.20;99.90
47350;DHT22;33088;51.982;5.872;2022-08-19T04:18:49;17.30;99.90
47350;DHT22;33088;51.982;5.872;2022-08-19T04:21:23;17.20;99.90
47350;DHT22;33088;51.982;5.872;2022-08-19T04:23:49;17.10;99.90
47350;DHT22;33088;51.982;5.872;2022-08-19T04:26:18;17.10;99.90
47350;DHT22;33088;51.982;5.872;2022-08-19T04:28:44;17.10;99.90
47350;DHT22;33088;51.982;5.872;2022-08-19T04:31:19;17.10;99.90
47350;DHT22;33088;51.982;5.872;2022-08-19T04:33:45;17.10;99.90
47350;DHT22;33088;51.982;5.872;2022-08-19T04:36:19;17.10;99.90
47350;DHT22;33088;51.982;5.872;2022-08-19T04:38:47;17.10;99.90
47350;DHT22;33088;51.982;5.872;2022-08-19T04:41:13;17.10;99.90
47350;DHT22;33088;51.982;5.872;2022-08-19T04:43:58;17.00;99.90
47350;DHT22;33088;51.982;5.872;2022-08-19T04:46:23;16.90;99.90
47350;DHT22;33088;51.982;5.872;2022-08-19T04:48:49;16.80;99.90
47350;DHT22;33088;51.982;5.872;2022-08-19T04:51:15;17.00;99.90
47350;DHT22;33088;51.982;5.872;2022-08-19T04:53:41;16.90;99.90
47350;DHT22;33088;51.982;5.872;2022-08-19T04:56:13;16.90;99.90
47350;DHT22;33088;51.982;5.872;2022-08-19T04:58:41;16.90;99.90
47350;DHT22;33088;51.982;5.872;2022-08-19T05:01:17;16.90;99.90
47350;DHT22;33088;51.982;5.872;2022-08-19T05:03:43;16.80;99.90
47350;DHT22;33088;51.982;5.872;2022-08-19T05:06:12;16.80;99.90
47350;DHT22;33088;51.982;5.872;2022-08-19T05:08:39;16.70;99.90
47350;DHT22;33088;51.982;5.872;2022-08-19T05:11:33;16.90;99.90
47350;DHT22;33088;51.982;5.872;2022-08-19T05:13:57;16.80;99.90
47350;DHT22;33088;51.982;5.872;2022-08-19T05:16:24;16.80;99.90
47350;DHT22;33088;51.982;5.872;2022-08-19T05:18:50;17.00;99.90
47350;DHT22;33088;51.982;5.872;2022-08-19T05:21:35;17.00;99.90
47350;DHT22;33088;51.982;5.872;2022-08-19T05:24:21;17.00;99.90
47350;DHT22;33088;51.982;5.872;2022-08-19T05:26:48;17.00;99.90
47350;DHT22;33088;51.982;5.872;2022-08-19T05:29:16;17.10;99.90
47350;DHT22;33088;51.982;5.872;2022-08-19T05:31:42;17.20;99.90
47350;DHT22;33088;51.982;5.872;2022-08-19T05:34:08;17.20;99.90
47350;DHT22;33088;51.982;5.872;2022-08-19T05:36:38;17.40;99.90
47350;DHT22;33088;51.982;5.872;2022-08-19T05:39:07;17.40;99.90
47350;DHT22;33088;51.982;5.872;2022-08-19T05:41:33;17.60;99.90
47350;DHT22;33088;51.982;5.872;2022-08-19T05:44:02;17.50;99.90
47350;DHT22;33088;51.982;5.872;2022-08-19T05:46:28;17.60;99.90
47350;DHT22;33088;51.982;5.872;2022-08-19T05:48:55;17.60;99.90
47350;DHT22;33088;51.982;5.872;2022-08-19T05:51:22;17.70;99.90
47350;DHT22;33088;51.982;5.872;2022-08-19T05:53:49;17.70;99.90
47350;DHT22;33088;51.982;5.872;2022-08-19T05:56:16;17.80;99.90
47350;DHT22;33088;51.982;5.872;2022-08-19T05:58:44;17.70;99.90
47350;DHT22;33088;51.982;5.872;2022-08-19T06:01:16;18.00;99.90
47350;DHT22;33088;51.982;5.872;2022-08-19T06:03:42;18.10;99.90
47350;DHT22;33088;51.982;5.872;2022-08-19T06:06:10;18.30;99.90
47350;DHT22;33088;51.982;5.872;2022-08-19T06:08:36;18.30;99.90
47350;DHT22;33088;51.982;5.872;2022-08-19T06:11:19;18.40;99.90
47350;DHT22;33088;51.982;5.872;2022-08-19T06:13:47;18.50;99.90
47350;DHT22;33088;51.982;5.872;2022-08-19T06:16:16;18.50;99.90
47350;DHT22;33088;51.982;5.872;2022-08-19T06:18:49;18.60;99.90
47350;DHT22;33088;51.982;5.872;2022-08-19T06:21:18;18.60;99.90
47350;DHT22;33088;51.982;5.872;2022-08-19T06:23:45;18.70;99.90
47350;DHT22;33088;51.982;5.872;2022-08-19T06:26:12;18.70;99.90
47350;DHT22;33088;51.982;5.872;2022-08-19T06:28:38;18.80;99.90
47350;DHT22;33088;51.982;5.872;2022-08-19T06:31:08;18.80;99.90
47350;DHT22;33088;51.982;5.872;2022-08-19T06:33:34;19.00;99.90
47350;DHT22;33088;51.982;5.872;2022-08-19T06:36:00;18.90;99.90
47350;DHT22;33088;51.982;5.872;2022-08-19T06:38:26;19.10;99.90
47350;DHT22;33088;51.982;5.872;2022-08-19T06:41:00;19.10;99.90
47350;DHT22;33088;51.982;5.872;2022-08-19T06:43:26;19.20;99.90
47350;DHT22;33088;51.982;5.872;2022-08-19T06:45:52;19.40;99.90
47350;DHT22;33088;51.982;5.872;2022-08-19T06:48:17;19.40;99.90
47350;DHT22;33088;51.982;5.872;2022-08-19T06:50:43;19.50;99.90
47350;DHT22;33088;51.982;5.872;2022-08-19T06:53:09;19.60;99.90
47350;DHT22;33088;51.982;5.872;2022-08-19T06:55:35;19.50;99.90
47350;DHT22;33088;51.982;5.872;2022-08-19T06:58:04;19.60;99.90
47350;DHT22;33088;51.982;5.872;2022-08-19T07:00:30;19.80;99.90
47350;DHT22;33088;51.982;5.872;2022-08-19T07:02:56;19.80;99.90
47350;DHT22;33088;51.982;5.872;2022-08-19T07:05:22;19.80;99.90
47350;DHT22;33088;51.982;5.872;2022-08-19T07:07:48;19.70;99.90
47350;DHT22;33088;51.982;5.872;2022-08-19T07:10:14;19.70;99.90
47350;DHT22;33088;51.982;5.872;2022-08-19T07:12:39;19.80;99.90
47350;DHT22;33088;51.982;5.872;2022-08-19T07:15:06;19.70;99.90
47350;DHT22;33088;51.982;5.872;2022-08-19T07:17:34;19.70;99.90
47350;DHT22;33088;51.982;5.872;2022-08-19T07:20:03;19.70;99.90
47350;DHT22;33088;51.982;5.872;2022-08-19T07:22:29;19.70;99.90
47350;DHT22;33088;51.982;5.872;2022-08-19T07:24:55;19.80;99.90
47350;DHT22;33088;51.982;5.872;2022-08-19T07:27:21;19.80;99.90
47350;DHT22;33088;51.982;5.872;2022-08-19T07:29:47;19.80;99.90
47350;DHT22;33088;51.982;5.872;2022-08-19T07:32:12;19.90;99.90
47350;DHT22;33088;51.982;5.872;2022-08-19T07:34:38;20.00;99.90
47350;DHT22;33088;51.982;5.872;2022-08-19T07:37:05;20.20;99.90
47350;DHT22;33088;51.982;5.872;2022-08-19T07:39:34;20.30;99.90
47350;DHT22;33088;51.982;5.872;2022-08-19T07:42:05;20.30;99.90
47350;DHT22;33088;51.982;5.872;2022-08-19T07:44:32;20.40;99.90
47350;DHT22;33088;51.982;5.872;2022-08-19T07:47:00;20.60;99.90
47350;DHT22;33088;51.982;5.872;2022-08-19T07:49:26;20.50;99.90
47350;DHT22;33088;51.982;5.872;2022-08-19T07:51:58;20.60;99.90
47350;DHT22;33088;51.982;5.872;2022-08-19T07:54:27;20.60;99.90
47350;DHT22;33088;51.982;5.872;2022-08-19T07:56:54;20.60;99.90
47350;DHT22;33088;51.982;5.872;2022-08-19T07:59:20;20.50;99.90
47350;DHT22;33088;51.982;5.872;2022-08-19T08:01:47;20.40;99.90
47350;DHT22;33088;51.982;5.872;2022-08-19T08:04:13;20.30;99.90
47350;DHT22;33088;51.982;5.872;2022-08-19T08:06:58;20.40;99.90
47350;DHT22;33088;51.982;5.872;2022-08-19T08:09:43;20.50;99.90
47350;DHT22;33088;51.982;5.872;2022-08-19T08:12:18;20.60;99.90
47350;DHT22;33088;51.982;5.872;2022-08-19T08:14:49;20.80;99.90
47350;DHT22;33088;51.982;5.872;2022-08-19T08:17:17;21.10;99.90
47350;DHT22;33088;51.982;5.872;2022-08-19T08:19:44;21.40;99.90
47350;DHT22;33088;51.982;5.872;2022-08-19T08:22:11;21.60;99.90
47350;DHT22;33088;51.982;5.872;2022-08-19T08:24:56;21.80;99.90
47350;DHT22;33088;51.982;5.872;2022-08-19T08:27:24;22.00;99.90
47350;DHT22;33088;51.982;5.872;2022-08-19T08:29:50;22.00;99.90
47350;DHT22;33088;51.982;5.872;2022-08-19T08:32:15;21.80;99.90
47350;DHT22;33088;51.982;5.872;2022-08-19T08:34:42;21.60;99.90
47350;DHT22;33088;51.982;5.872;2022-08-19T08:37:08;21.30;99.90
47350;DHT22;33088;51.982;5.872;2022-08-19T08:39:33;21.50;99.90
47350;DHT22;33088;51.982;5.872;2022-08-19T08:45:03;21.30;99.90
47350;DHT22;33088;51.982;5.872;2022-08-19T08:47:38;21.30;99.90
47350;DHT22;33088;51.982;5.872;2022-08-19T08:50:09;21.30;99.90
47350;DHT22;33088;51.982;5.872;2022-08-19T08:52:43;21.20;99.90
47350;DHT22;33088;51.982;5.872;2022-08-19T08:55:11;21.30;99.90
47350;DHT22;33088;51.982;5.872;2022-08-19T09:00:24;21.30;99.90
47350;DHT22;33088;51.982;5.872;2022-08-19T09:02:50;21.40;99.90
47350;DHT22;33088;51.982;5.872;2022-08-19T09:05:16;21.50;99.90
47350;DHT22;33088;51.982;5.872;2022-08-19T09:08:06;21.50;99.90
47350;DHT22;33088;51.982;5.872;2022-08-19T09:10:43;21.60;99.90
47350;DHT22;33088;51.982;5.872;2022-08-19T09:16:11;21.60;99.90
47350;DHT22;33088;51.982;5.872;2022-08-19T09:21:05;21.80;99.90
47350;DHT22;33088;51.982;5.872;2022-08-19T09:23:31;22.00;99.90
47350;DHT22;33088;51.982;5.872;2022-08-19T09:25:57;22.10;99.90
47350;DHT22;33088;51.982;5.872;2022-08-19T09:28:22;21.90;99.90
47350;DHT22;33088;51.982;5.872;2022-08-19T09:30:48;21.90;99.90
47350;DHT22;33088;51.982;5.872;2022-08-19T09:33:14;22.10;99.90
47350;DHT22;33088;51.982;5.872;2022-08-19T09:35:41;22.10;99.90
47350;DHT22;33088;51.982;5.872;2022-08-19T09:38:07;22.20;99.90
47350;DHT22;33088;51.982;5.872;2022-08-19T09:40:33;22.30;99.90
47350;DHT22;33088;51.982;5.872;2022-08-19T09:42:58;22.30;99.90
47350;DHT22;33088;51.982;5.872;2022-08-19T09:45:28;22.20;99.90
47350;DHT22;33088;51.982;5.872;2022-08-19T09:47:54;22.10;99.90
47350;DHT22;33088;51.982;5.872;2022-08-19T09:50:21;22.10;99.90
47350;DHT22;33088;51.982;5.872;2022-08-19T09:52:47;22.20;99.90
47350;DHT22;33088;51.982;5.872;2022-08-19T09:55:13;22.30;99.90
47350;DHT22;33088;51.982;5.872;2022-08-19T09:57:38;22.30;99.90
47350;DHT22;33088;51.982;5.872;2022-08-19T10:00:07;22.30;99.90
47350;DHT22;33088;51.982;5.872;2022-08-19T10:02:35;22.30;99.90
47350;DHT22;33088;51.982;5.872;2022-08-19T10:05:01;22.40;99.90
47350;DHT22;33088;51.982;5.872;2022-08-19T10:07:45;22.50;99.90
47350;DHT22;33088;51.982;5.872;2022-08-19T10:10:11;22.50;99.90
47350;DHT22;33088;51.982;5.872;2022-08-19T10:12:37;22.60;99.90
47350;DHT22;33088;51.982;5.872;2022-08-19T10:15:05;22.70;99.90
47350;DHT22;33088;51.982;5.872;2022-08-19T10:17:31;22.90;99.90
47350;DHT22;33088;51.982;5.872;2022-08-19T10:19:59;22.90;99.90
47350;DHT22;33088;51.982;5.872;2022-08-19T10:22:25;23.00;99.90
47350;DHT22;33088;51.982;5.872;2022-08-19T10:24:50;23.10;99.90
47350;DHT22;33088;51.982;5.872;2022-08-19T10:27:17;22.90;99.90
47350;DHT22;33088;51.982;5.872;2022-08-19T10:29:43;22.70;99.90
47350;DHT22;33088;51.982;5.872;2022-08-19T10:32:09;22.80;99.90
47350;DHT22;33088;51.982;5.872;2022-08-19T10:34:39;22.90;99.90
47350;DHT22;33088;51.982;5.872;2022-08-19T10:37:05;22.70;99.90
47350;DHT22;33088;51.982;5.872;2022-08-19T10:39:34;22.60;99.90
47350;DHT22;33088;51.982;5.872;2022-08-19T10:42:04;22.80;99.90
47350;DHT22;33088;51.982;5.872;2022-08-19T10:44:32;22.90;99.90
47350;DHT22;33088;51.982;5.872;2022-08-19T10:46:58;23.10;99.90
47350;DHT22;33088;51.982;5.872;2022-08-19T10:49:24;23.20;99.90
47350;DHT22;33088;51.982;5.872;2022-08-19T10:51:49;23.40;99.90
47350;DHT22;33088;51.982;5.872;2022-08-19T10:54:34;23.60;99.90
47350;DHT22;33088;51.982;5.872;2022-08-19T10:57:18;23.80;99.90
47350;DHT22;33088;51.982;5.872;2022-08-19T10:59:44;23.70;99.90
47350;DHT22;33088;51.982;5.872;2022-08-19T11:02:11;23.70;99.90
47350;DHT22;33088;51.982;5.872;2022-08-19T11:04:38;23.80;99.90
47350;DHT22;33088;51.982;5.872;2022-08-19T11:07:05;23.80;99.90
47350;DHT22;33088;51.982;5.872;2022-08-19T11:09:31;23.80;99.90
47350;DHT22;33088;51.982;5.872;2022-08-19T11:12:02;23.80;99.90
47350;DHT22;33088;51.982;5.872;2022-08-19T11:14:28;23.80;99.90
47350;DHT22;33088;51.982;5.872;2022-08-19T11:16:58;23.80;99.90
47350;DHT22;33088;51.982;5.872;2022-08-19T11:19:24;24.00;99.90
47350;DHT22;33088;51.982;5.872;2022-08-19T11:21:51;24.20;99.90
47350;DHT22;33088;51.982;5.872;2022-08-19T11:24:20;24.60;99.90
47350;DHT22;33088;51.982;5.872;2022-08-19T11:26:47;24.50;99.90
47350;DHT22;33088;51.982;5.872;2022-08-19T11:29:18;24.70;99.90
47350;DHT22;33088;51.982;5.872;2022-08-19T11:31:46;25.00;99.90
47350;DHT22;33088;51.982;5.872;2022-08-19T11:34:16;25.20;99.90
47350;DHT22;33088;51.982;5.872;2022-08-19T11:36:44;25.10;99.90
47350;DHT22;33088;51.982;5.872;2022-08-19T11:39:12;25.10;99.90
47350;DHT22;33088;51.982;5.872;2022-08-19T11:41:39;25.10;99.90
47350;DHT22;33088;51.982;5.872;2022-08-19T11:44:05;25.10;99.90
47350;DHT22;33088;51.982;5.872;2022-08-19T11:46:31;25.30;99.90
47350;DHT22;33088;51.982;5.872;2022-08-19T11:48:58;25.40;99.90
47350;DHT22;33088;51.982;5.872;2022-08-19T11:51:26;25.60;99.90
47350;DHT22;33088;51.982;5.872;2022-08-19T11:53:53;25.60;99.90
47350;DHT22;33088;51.982;5.872;2022-08-19T11:56:20;25.60;99.90
47350;DHT22;33088;51.982;5.872;2022-08-19T11:58:46;25.70;99.90
47350;DHT22;33088;51.982;5.872;2022-08-19T12:01:14;25.60;99.90
47350;DHT22;33088;51.982;5.872;2022-08-19T12:03:48;25.50;99.90
47350;DHT22;33088;51.982;5.872;2022-08-19T12:06:26;25.60;99.90
47350;DHT22;33088;51.982;5.872;2022-08-19T12:08:55;25.40;99.90
47350;DHT22;33088;51.982;5.872;2022-08-19T12:11:21;25.30;99.90
47350;DHT22;33088;51.982;5.872;2022-08-19T12:13:46;25.60;99.90
47350;DHT22;33088;51.982;5.872;2022-08-19T12:16:21;25.80;99.90
47350;DHT22;33088;51.982;5.872;2022-08-19T12:18:49;25.90;99.90
47350;DHT22;33088;51.982;5.872;2022-08-19T12:21:20;26.00;99.90
47350;DHT22;33088;51.982;5.872;2022-08-19T12:23:49;26.00;99.90
47350;DHT22;33088;51.982;5.872;2022-08-19T12:26:18;26.10;99.90
47350;DHT22;33088;51.982;5.872;2022-08-19T12:28:44;26.30;99.90
47350;DHT22;33088;51.982;5.872;2022-08-19T12:31:10;26.20;99.90
47350;DHT22;33088;51.982;5.872;2022-08-19T12:33:40;26.40;99.90
47350;DHT22;33088;51.982;5.872;2022-08-19T12:36:10;26.50;99.90
47350;DHT22;33088;51.982;5.872;2022-08-19T12:38:37;26.40;99.90
47350;DHT22;33088;51.982;5.872;2022-08-19T12:41:05;26.40;99.90
47350;DHT22;33088;51.982;5.872;2022-08-19T12:43:35;26.20;99.90
47350;DHT22;33088;51.982;5.872;2022-08-19T12:46:02;26.00;99.90
47350;DHT22;33088;51.982;5.872;2022-08-19T12:48:30;26.10;99.90
47350;DHT22;33088;51.982;5.872;2022-08-19T12:50:56;26.20;99.90
47350;DHT22;33088;51.982;5.872;2022-08-19T12:53:22;26.20;99.90
47350;DHT22;33088;51.982;5.872;2022-08-19T12:55:54;26.30;99.90
47350;DHT22;33088;51.982;5.872;2022-08-19T12:58:24;26.10;99.90
47350;DHT22;33088;51.982;5.872;2022-08-19T13:00:49;25.80;99.90
47350;DHT22;33088;51.982;5.872;2022-08-19T13:03:15;25.90;99.90
47350;DHT22;33088;51.982;5.872;2022-08-19T13:05:41;26.20;99.90
47350;DHT22;33088;51.982;5.872;2022-08-19T13:08:07;26.30;99.90
47350;DHT22;33088;51.982;5.872;2022-08-19T13:10:35;26.60;99.90
47350;DHT22;33088;51.982;5.872;2022-08-19T13:13:05;26.50;99.90
47350;DHT22;33088;51.982;5.872;2022-08-19T13:15:34;26.30;99.90
47350;DHT22;33088;51.982;5.872;2022-08-19T13:18:01;26.10;99.90
47350;DHT22;33088;51.982;5.872;2022-08-19T13:20:27;26.20;99.90
47350;DHT22;33088;51.982;5.872;2022-08-19T13:22:54;26.20;99.90
47350;DHT22;33088;51.982;5.872;2022-08-19T13:25:20;26.30;99.90
47350;DHT22;33088;51.982;5.872;2022-08-19T13:27:48;26.60;99.90
47350;DHT22;33088;51.982;5.872;2022-08-19T13:30:18;26.50;99.90
47350;DHT22;33088;51.982;5.872;2022-08-19T13:33:04;26.50;99.90
47350;DHT22;33088;51.982;5.872;2022-08-19T13:35:37;26.60;99.90
47350;DHT22;33088;51.982;5.872;2022-08-19T13:38:02;26.70;99.90
47350;DHT22;33088;51.982;5.872;2022-08-19T13:40:31;26.90;99.90
47350;DHT22;33088;51.982;5.872;2022-08-19T13:43:00;26.90;99.90
47350;DHT22;33088;51.982;5.872;2022-08-19T13:45:28;26.70;99.90
47350;DHT22;33088;51.982;5.872;2022-08-19T13:47:55;26.50;99.90
47350;DHT22;33088;51.982;5.872;2022-08-19T13:50:24;26.50;99.90
47350;DHT22;33088;51.982;5.872;2022-08-19T13:52:52;26.90;99.90
47350;DHT22;33088;51.982;5.872;2022-08-19T13:55:19;26.90;99.90
47350;DHT22;33088;51.982;5.872;2022-08-19T13:57:45;27.00;99.90
47350;DHT22;33088;51.982;5.872;2022-08-19T14:00:16;26.60;99.90
47350;DHT22;33088;51.982;5.872;2022-08-19T14:02:46;26.50;99.90
47350;DHT22;33088;51.982;5.872;2022-08-19T14:05:14;26.40;99.90
47350;DHT22;33088;51.982;5.872;2022-08-19T14:07:41;26.40;99.90
47350;DHT22;33088;51.982;5.872;2022-08-19T14:10:09;26.20;99.90
47350;DHT22;33088;51.982;5.872;2022-08-19T14:12:36;26.00;99.90
47350;DHT22;33088;51.982;5.872;2022-08-19T14:15:02;25.90;99.90
47350;DHT22;33088;51.982;5.872;2022-08-19T14:17:28;25.80;99.90
47350;DHT22;33088;51.982;5.872;2022-08-19T14:19:59;25.80;99.90
47350;DHT22;33088;51.982;5.872;2022-08-19T14:22:33;25.70;99.90
47350;DHT22;33088;51.982;5.872;2022-08-19T14:24:58;25.60;99.90
47350;DHT22;33088;51.982;5.872;2022-08-19T14:27:24;25.60;99.90
47350;DHT22;33088;51.982;5.872;2022-08-19T14:29:51;25.50;99.90
47350;DHT22;33088;51.982;5.872;2022-08-19T14:32:20;25.70;99.90
47350;DHT22;33088;51.982;5.872;2022-08-19T14:34:47;25.60;99.90
47350;DHT22;33088;51.982;5.872;2022-08-19T14:37:14;25.60;99.90
47350;DHT22;33088;51.982;5.872;2022-08-19T14:39:41;25.40;99.90
47350;DHT22;33088;51.982;5.872;2022-08-19T14:42:10;25.40;99.90
47350;DHT22;33088;51.982;5.872;2022-08-19T14:44:36;25.30;99.90
47350;DHT22;33088;51.982;5.872;2022-08-19T14:47:02;25.30;99.90
47350;DHT22;33088;51.982;5.872;2022-08-19T14:49:28;25.20;99.90
47350;DHT22;33088;51.982;5.872;2022-08-19T14:51:54;25.10;99.90
47350;DHT22;33088;51.982;5.872;2022-08-19T14:54:20;25.10;99.90
47350;DHT22;33088;51.982;5.872;2022-08-19T14:56:46;25.30;99.90
47350;DHT22;33088;51.982;5.872;2022-08-19T14:59:12;25.20;99.90
47350;DHT22;33088;51.982;5.872;2022-08-19T15:01:37;25.30;99.90
47350;DHT22;33088;51.982;5.872;2022-08-19T15:04:03;25.20;99.90
47350;DHT22;33088;51.982;5.872;2022-08-19T15:06:29;25.20;99.90
47350;DHT22;33088;51.982;5.872;2022-08-19T15:08:55;25.10;99.90
47350;DHT22;33088;51.982;5.872;2022-08-19T15:11:23;25.00;99.90
47350;DHT22;33088;51.982;5.872;2022-08-19T15:13:50;25.00;99.90
47350;DHT22;33088;51.982;5.872;2022-08-19T15:16:17;24.80;99.90
47350;DHT22;33088;51.982;5.872;2022-08-19T15:18:43;24.80;99.90
47350;DHT22;33088;51.982;5.872;2022-08-19T15:21:13;24.80;99.90
47350;DHT22;33088;51.982;5.872;2022-08-19T15:23:40;24.80;99.90
47350;DHT22;33088;51.982;5.872;2022-08-19T15:26:06;24.80;99.90
47350;DHT22;33088;51.982;5.872;2022-08-19T15:28:36;24.70;99.90
47350;DHT22;33088;51.982;5.872;2022-08-19T15:31:03;24.60;99.90
47350;DHT22;33088;51.982;5.872;2022-08-19T15:33:32;24.60;99.90
47350;DHT22;33088;51.982;5.872;2022-08-19T15:35:57;24.50;99.90
47350;DHT22;33088;51.982;5.872;2022-08-19T15:38:24;24.40;99.90
47350;DHT22;33088;51.982;5.872;2022-08-19T15:40:51;24.40;99.90
47350;DHT22;33088;51.982;5.872;2022-08-19T15:43:19;24.20;99.90
47350;DHT22;33088;51.982;5.872;2022-08-19T15:45:47;24.20;99.90
47350;DHT22;33088;51.982;5.872;2022-08-19T15:48:13;24.10;99.90
47350;DHT22;33088;51.982;5.872;2022-08-19T15:50:38;24.10;99.90